LFKC/CLY METAR and TAF weather

Enter ICAO airport designator
Station Type Date Time Source
LFKC METAR 2020/07/14 22:00 UTC NOAA

LFKC 142200Z AUTO 18004KT 160V220 CAVOK 20/14 Q1014


Station Type Date Time Source
LFKC Decoded METAR 2020/07/14 22:00 UTC NOAA

Calvi, France (LFKC) 42-32N 008-48E 58M
Jul 14, 2020 - 06:00 PM EDT / 2020.07.14 2200 UTC
Wind: from the S (180 degrees) at 5 MPH (4 KT) (direction variable):0
Visibility: greater than 7 mile(s):0
Temperature: 68 F (20 C)
Dew Point: 57 F (14 C)
Relative Humidity: 68%
Pressure (altimeter): 29.94 in. Hg (1014 hPa)
ob: LFKC 142200Z AUTO 18004KT 160V220 CAVOK 20/14 Q1014
cycle: 22

Station Type Date Time Source
LFKC TAF 2020/07/14 20:39 UTC NOAA

TAF TAF LFKC 142030Z 1420/1515 CNL

Example: see airport list